TimeEST,TemperatureF,Dew PointF,Humidity,Sea Level PressureIn,VisibilityMPH,Wind Direction,Wind SpeedMPH,Gust SpeedMPH,PrecipitationIn,Events,Conditions,WindDirDegrees,DateUTC
12:00 AM,84.2,75.2,74,29.89,6.2,NNW,6.9,-,N/A,Thunderstorm,Partly Cloudy,340,2013-09-28 05:00:00
1:00 AM,83,77,78,29.90,12,North,5.8,,,,Haze,350,2013-09-28 06:00:00
1:00 AM,82.4,77.0,84,29.89,6.2,North,5.8,-,N/A,,Partly Cloudy,350,2013-09-28 06:00:00
2:00 AM,82.4,73.4,74,29.86,6.2,NNE,6.9,-,N/A,,Partly Cloudy,20,2013-09-28 07:00:00
3:00 AM,82.4,73.4,74,29.86,6.2,ENE,4.6,-,N/A,,Partly Cloudy,60,2013-09-28 08:00:00
4:00 AM,81,74,73,29.85,12,North,1.2,,,,Haze,0,2013-09-28 09:00:00
4:00 AM,80.6,73.4,79,29.83,6.2,North,1.2,-,N/A,,Partly Cloudy,360,2013-09-28 09:00:00
5:00 AM,80.6,75.2,84,29.86,6.2,SE,2.3,-,N/A,,Partly Cloudy,130,2013-09-28 10:00:00
6:00 AM,80.6,71.6,74,29.86,6.2,NNW,5.8,-,N/A,,Partly Cloudy,340,2013-09-28 11:00:00
7:00 AM,80,74,77,29.89,12,WNW,5.8,,,,Haze,290,2013-09-28 12:00:00
7:00 AM,80.6,73.4,79,29.89,6.2,WNW,5.8,-,N/A,,Partly Cloudy,290,2013-09-28 12:00:00
8:00 AM,82.4,71.6,70,29.89,6.2,NNW,8.1,-,N/A,,Partly Cloudy,340,2013-09-28 13:00:00
9:00 AM,84.2,73.4,70,29.89,6.2,NNW,8.1,-,N/A,,Partly Cloudy,340,2013-09-28 14:00:00
10:00 AM,87,73,56,29.92,17,NNW,5.8,,,,Haze,330,2013-09-28 15:00:00
10:00 AM,86.0,73.4,66,29.92,6.2,NNW,5.8,-,N/A,,Partly Cloudy,330,2013-09-28 15:00:00
11:00 AM,87.8,77.0,70,29.92,6.2,SE,6.9,-,N/A,,Mostly Cloudy,140,2013-09-28 16:00:00
12:00 PM,89.6,75.2,62,29.89,6.2,SSE,15.0,-,N/A,,Scattered Clouds,150,2013-09-28 17:00:00
1:00 PM,89,67,38,29.88,6,SSE,19.6,,,Thunderstorm,Thunderstorm,150,2013-09-28 18:00:00
1:00 PM,89.6,66.2,46,29.86,6.2,SSE,19.6,-,N/A,Thunderstorm,Thunderstorm,150,2013-09-28 18:00:00
2:00 PM,89.6,77.0,66,29.83,6.2,SSE,18.4,-,N/A,,Partly Cloudy,150,2013-09-28 19:00:00
3:00 PM,87.8,77.0,70,29.83,6.2,SSE,17.3,-,N/A,,Scattered Clouds,150,2013-09-28 20:00:00
4:00 PM,84,74,64,29.86,4,NE,12.7,,,,Mostly Cloudy,50,2013-09-28 21:00:00
4:00 PM,84.2,73.4,70,29.86,6.2,NE,12.7,-,N/A,,Mostly Cloudy,50,2013-09-28 21:00:00
5:00 PM,86.0,75.2,70,29.83,6.2,East,12.7,-,N/A,,Scattered Clouds,100,2013-09-28 22:00:00
6:00 PM,84.2,75.2,74,29.86,6.2,NNW,6.9,-,N/A,,Scattered Clouds,340,2013-09-28 23:00:00
7:00 PM,83,76,74,29.89,9,NNE,8.1,,,,Haze,20,2013-09-29 00:00:00
7:00 PM,84.2,77.0,79,29.89,6.2,NNE,8.1,-,N/A,,Partly Cloudy,20,2013-09-29 00:00:00
8:00 PM,82.4,73.4,74,29.92,6.2,North,8.1,-,N/A,Thunderstorm,Partly Cloudy,350,2013-09-29 01:00:00
9:00 PM,82.4,73.4,74,29.92,6.2,NNW,5.8,-,N/A,,Partly Cloudy,330,2013-09-29 02:00:00
10:00 PM,82,73,68,29.94,9,NNE,6.9,,,,Haze,30,2013-09-29 03:00:00
10:00 PM,82.4,73.4,74,29.92,6.2,NNE,6.9,-,N/A,,Scattered Clouds,30,2013-09-29 03:00:00
10:35 PM,77.0,73.4,89,29.95,6.2,SE,20.7,-,N/A,Rain-Thunderstorm,Light Rain Showers,140,2013-09-29 03:35:00
11:00 PM,77.0,73.4,89,29.95,6.2,SE,15.0,-,N/A,Rain-Thunderstorm,Light Rain Showers,130,2013-09-29 04:00:00